Terminal Aerodrome Forecast
Issued by NWS

Home | Current Version | Previous Version | Graphics & Text | Print | Product List | Glossary On
Versions: 1 2 3 4 5 6 7 8 9 10 11 12 13 14 15 16 17 18 19 20 21
365
FTUS43 KABR 211121
TAFPIR
TAF
KPIR 211121Z 2112/2212 11005KT P6SM VCSH OVC080
     FM211400 13007KT P6SM OVC080
     FM211800 15011KT P6SM OVC050
     FM220200 14008KT P6SM SCT250=

USA.gov is the U.S. government's official web portal to all federal, state and local government web resources and services.